sensor_id;sensor_type;location;lat;lon;timestamp;pressure;altitude;pressure_sealevel;temperature;humidity
60355;BME280;46198;51.464;-0.066;2023-04-07T00:02:20;101734.53;;;6.88;100.00
60355;BME280;46198;51.464;-0.066;2023-04-07T00:04:49;101748.88;;;6.89;100.00
60355;BME280;46198;51.464;-0.066;2023-04-07T00:07:16;101748.22;;;6.87;100.00
60355;BME280;46198;51.464;-0.066;2023-04-07T00:09:44;101754.81;;;6.84;100.00
60355;BME280;46198;51.464;-0.066;2023-04-07T00:12:12;101757.66;;;6.83;100.00
60355;BME280;46198;51.464;-0.066;2023-04-07T00:14:40;101755.31;;;6.80;100.00
60355;BME280;46198;51.464;-0.066;2023-04-07T00:17:09;101755.66;;;6.77;100.00
60355;BME280;46198;51.464;-0.066;2023-04-07T00:19:37;101767.78;;;6.81;100.00
60355;BME280;46198;51.464;-0.066;2023-04-07T00:22:05;101764.59;;;6.77;100.00
60355;BME280;46198;51.464;-0.066;2023-04-07T00:24:33;101768.81;;;6.80;100.00
60355;BME280;46198;51.464;-0.066;2023-04-07T00:27:01;101765.44;;;6.78;100.00
60355;BME280;46198;51.464;-0.066;2023-04-07T00:29:29;101762.06;;;6.76;100.00
60355;BME280;46198;51.464;-0.066;2023-04-07T00:31:57;101762.41;;;6.73;100.00
60355;BME280;46198;51.464;-0.066;2023-04-07T00:34:26;101763.09;;;6.75;100.00
60355;BME280;46198;51.464;-0.066;2023-04-07T00:36:54;101764.13;;;6.74;100.00
60355;BME280;46198;51.464;-0.066;2023-04-07T00:39:21;101763.28;;;6.73;100.00
60355;BME280;46198;51.464;-0.066;2023-04-07T00:41:49;101767.81;;;6.73;100.00
60355;BME280;46198;51.464;-0.066;2023-04-07T00:44:17;101772.56;;;6.71;100.00
60355;BME280;46198;51.464;-0.066;2023-04-07T00:46:46;101775.25;;;6.71;100.00
60355;BME280;46198;51.464;-0.066;2023-04-07T00:49:14;101777.28;;;6.69;100.00
60355;BME280;46198;51.464;-0.066;2023-04-07T00:51:44;101770.19;;;6.68;100.00
60355;BME280;46198;51.464;-0.066;2023-04-07T00:54:13;101776.25;;;6.70;100.00
60355;BME280;46198;51.464;-0.066;2023-04-07T00:56:41;101773.91;;;6.66;100.00
60355;BME280;46198;51.464;-0.066;2023-04-07T00:59:09;101775.75;;;6.66;100.00
60355;BME280;46198;51.464;-0.066;2023-04-07T01:01:39;101778.47;;;6.66;100.00
60355;BME280;46198;51.464;-0.066;2023-04-07T01:04:11;101777.63;;;6.65;100.00
60355;BME280;46198;51.464;-0.066;2023-04-07T01:06:43;101786.38;;;6.68;100.00
60355;BME280;46198;51.464;-0.066;2023-04-07T01:09:17;101780.66;;;6.62;100.00
60355;BME280;46198;51.464;-0.066;2023-04-07T01:11:47;101787.75;;;6.63;100.00
60355;BME280;46198;51.464;-0.066;2023-04-07T01:14:18;101780.00;;;6.60;100.00
60355;BME280;46198;51.464;-0.066;2023-04-07T01:16:55;101783.88;;;6.58;100.00
60355;BME280;46198;51.464;-0.066;2023-04-07T01:19:28;101785.38;;;6.52;100.00
60355;BME280;46198;51.464;-0.066;2023-04-07T01:21:59;101788.94;;;6.53;100.00
60355;BME280;46198;51.464;-0.066;2023-04-07T01:24:41;101787.25;;;6.52;100.00
60355;BME280;46198;51.464;-0.066;2023-04-07T01:27:18;101788.09;;;6.52;100.00
60355;BME280;46198;51.464;-0.066;2023-04-07T01:29:49;101791.47;;;6.54;100.00
60355;BME280;46198;51.464;-0.066;2023-04-07T01:32:17;101791.78;;;6.51;100.00
60355;BME280;46198;51.464;-0.066;2023-04-07T01:34:46;101793.84;;;6.49;100.00
60355;BME280;46198;51.464;-0.066;2023-04-07T01:37:15;101794.00;;;6.48;100.00
60355;BME280;46198;51.464;-0.066;2023-04-07T01:39:45;101793.66;;;6.42;100.00
60355;BME280;46198;51.464;-0.066;2023-04-07T01:42:13;101791.13;;;6.41;100.00
60355;BME280;46198;51.464;-0.066;2023-04-07T01:44:42;101787.91;;;6.37;100.00
60355;BME280;46198;51.464;-0.066;2023-04-07T01:47:11;101791.63;;;6.36;100.00
60355;BME280;46198;51.464;-0.066;2023-04-07T01:49:41;101783.03;;;6.33;100.00
60355;BME280;46198;51.464;-0.066;2023-04-07T01:52:10;101786.72;;;6.32;100.00
60355;BME280;46198;51.464;-0.066;2023-04-07T01:54:37;101792.47;;;6.29;100.00
60355;BME280;46198;51.464;-0.066;2023-04-07T01:57:06;101783.88;;;6.25;100.00
60355;BME280;46198;51.464;-0.066;2023-04-07T01:59:34;101794.19;;;6.30;100.00
60355;BME280;46198;51.464;-0.066;2023-04-07T02:02:03;101790.94;;;6.26;100.00
60355;BME280;46198;51.464;-0.066;2023-04-07T02:04:34;101797.53;;;6.24;100.00
60355;BME280;46198;51.464;-0.066;2023-04-07T02:07:05;101796.19;;;6.19;100.00
60355;BME280;46198;51.464;-0.066;2023-04-07T02:09:40;101793.81;;;6.16;100.00
60355;BME280;46198;51.464;-0.066;2023-04-07T02:12:10;101801.22;;;6.14;100.00
60355;BME280;46198;51.464;-0.066;2023-04-07T02:14:45;101805.94;;;6.12;100.00
60355;BME280;46198;51.464;-0.066;2023-04-07T02:17:15;101800.41;;;6.14;100.00
60355;BME280;46198;51.464;-0.066;2023-04-07T02:19:45;101808.13;;;6.09;100.00
60355;BME280;46198;51.464;-0.066;2023-04-07T02:22:13;101803.09;;;6.06;100.00
60355;BME280;46198;51.464;-0.066;2023-04-07T02:24:42;101805.78;;;6.06;100.00
60355;BME280;46198;51.464;-0.066;2023-04-07T02:27:09;101801.56;;;6.03;100.00
60355;BME280;46198;51.464;-0.066;2023-04-07T02:29:37;101800.72;;;6.03;100.00
60355;BME280;46198;51.464;-0.066;2023-04-07T02:32:06;101805.25;;;6.02;100.00
60355;BME280;46198;51.464;-0.066;2023-04-07T02:34:34;101801.72;;;6.02;100.00
60355;BME280;46198;51.464;-0.066;2023-04-07T02:37:03;101802.56;;;6.02;100.00
60355;BME280;46198;51.464;-0.066;2023-04-07T02:39:32;101808.97;;;6.01;100.00
60355;BME280;46198;51.464;-0.066;2023-04-07T02:42:00;101805.44;;;6.01;100.00
60355;BME280;46198;51.464;-0.066;2023-04-07T02:44:28;101807.09;;;6.02;100.00
60355;BME280;46198;51.464;-0.066;2023-04-07T02:46:57;101801.72;;;6.02;100.00
60355;BME280;46198;51.464;-0.066;2023-04-07T02:49:25;101806.75;;;6.05;100.00
60355;BME280;46198;51.464;-0.066;2023-04-07T02:51:53;101808.63;;;6.04;100.00
60355;BME280;46198;51.464;-0.066;2023-04-07T02:54:22;101806.13;;;6.03;100.00
60355;BME280;46198;51.464;-0.066;2023-04-07T02:56:50;101801.03;;;6.08;100.00
60355;BME280;46198;51.464;-0.066;2023-04-07T02:59:18;101804.91;;;6.13;100.00
60355;BME280;46198;51.464;-0.066;2023-04-07T03:01:46;101807.47;;;6.15;100.00
60355;BME280;46198;51.464;-0.066;2023-04-07T03:04:15;101810.16;;;6.15;100.00
60355;BME280;46198;51.464;-0.066;2023-04-07T03:06:44;101813.69;;;6.15;100.00
60355;BME280;46198;51.464;-0.066;2023-04-07T03:09:14;101810.31;;;6.13;100.00
60355;BME280;46198;51.464;-0.066;2023-04-07T03:11:43;101817.41;;;6.14;100.00
60355;BME280;46198;51.464;-0.066;2023-04-07T03:14:12;101814.03;;;6.12;100.00
60355;BME280;46198;51.464;-0.066;2023-04-07T03:16:45;101818.59;;;6.12;100.00
60355;BME280;46198;51.464;-0.066;2023-04-07T03:19:13;101817.75;;;6.11;100.00
60355;BME280;46198;51.464;-0.066;2023-04-07T03:21:45;101821.44;;;6.10;100.00
60355;BME280;46198;51.464;-0.066;2023-04-07T03:24:13;101823.47;;;6.08;100.00
60355;BME280;46198;51.464;-0.066;2023-04-07T03:26:41;101830.53;;;6.09;100.00
60355;BME280;46198;51.464;-0.066;2023-04-07T03:29:33;101823.47;;;6.08;100.00
60355;BME280;46198;51.464;-0.066;2023-04-07T03:32:03;101827.16;;;6.07;100.00
60355;BME280;46198;51.464;-0.066;2023-04-07T03:34:31;101826.19;;;6.08;100.00
60355;BME280;46198;51.464;-0.066;2023-04-07T03:36:59;101823.97;;;6.12;100.00
60355;BME280;46198;51.464;-0.066;2023-04-07T03:39:29;101828.88;;;6.16;100.00
60355;BME280;46198;51.464;-0.066;2023-04-07T03:41:59;101822.31;;;6.19;100.00
60355;BME280;46198;51.464;-0.066;2023-04-07T03:44:30;101821.78;;;6.24;100.00
60355;BME280;46198;51.464;-0.066;2023-04-07T03:47:00;101824.16;;;6.27;100.00
60355;BME280;46198;51.464;-0.066;2023-04-07T03:49:29;101821.16;;;6.30;100.00
60355;BME280;46198;51.464;-0.066;2023-04-07T03:52:00;101821.47;;;6.35;100.00
60355;BME280;46198;51.464;-0.066;2023-04-07T03:54:28;101826.53;;;6.38;100.00
60355;BME280;46198;51.464;-0.066;2023-04-07T03:56:56;101827.19;;;6.40;100.00
60355;BME280;46198;51.464;-0.066;2023-04-07T03:59:24;101823.16;;;6.44;100.00
60355;BME280;46198;51.464;-0.066;2023-04-07T04:01:58;101825.34;;;6.49;100.00
60355;BME280;46198;51.464;-0.066;2023-04-07T04:04:28;101824.16;;;6.51;100.00
60355;BME280;46198;51.464;-0.066;2023-04-07T04:06:56;101825.53;;;6.55;100.00
60355;BME280;46198;51.464;-0.066;2023-04-07T04:09:37;101831.41;;;6.59;100.00
60355;BME280;46198;51.464;-0.066;2023-04-07T04:12:05;101831.06;;;6.62;100.00
60355;BME280;46198;51.464;-0.066;2023-04-07T04:14:38;101818.75;;;6.59;100.00
60355;BME280;46198;51.464;-0.066;2023-04-07T04:17:08;101823.50;;;6.65;100.00
60355;BME280;46198;51.464;-0.066;2023-04-07T04:19:42;101825.38;;;6.65;100.00
60355;BME280;46198;51.464;-0.066;2023-04-07T04:22:56;101827.19;;;6.64;100.00
60355;BME280;46198;51.464;-0.066;2023-04-07T04:25:24;101834.63;;;6.62;100.00
60355;BME280;46198;51.464;-0.066;2023-04-07T04:27:55;101833.13;;;6.60;100.00
60355;BME280;46198;51.464;-0.066;2023-04-07T04:30:25;101831.75;;;6.56;100.00
60355;BME280;46198;51.464;-0.066;2023-04-07T04:32:57;101832.78;;;6.55;100.00
60355;BME280;46198;51.464;-0.066;2023-04-07T04:35:47;101837.34;;;6.46;100.00
60355;BME280;46198;51.464;-0.066;2023-04-07T04:38:18;101842.22;;;6.42;100.00
60355;BME280;46198;51.464;-0.066;2023-04-07T04:41:12;101844.75;;;6.36;100.00
60355;BME280;46198;51.464;-0.066;2023-04-07T04:43:41;101845.72;;;6.35;100.00
60355;BME280;46198;51.464;-0.066;2023-04-07T04:46:13;101851.13;;;6.35;100.00
60355;BME280;46198;51.464;-0.066;2023-04-07T04:48:42;101855.19;;;6.31;100.00
60355;BME280;46198;51.464;-0.066;2023-04-07T04:51:11;101857.19;;;6.29;100.00
60355;BME280;46198;51.464;-0.066;2023-04-07T04:53:40;101850.97;;;6.28;100.00
60355;BME280;46198;51.464;-0.066;2023-04-07T04:56:08;101849.78;;;6.31;100.00
60355;BME280;46198;51.464;-0.066;2023-04-07T04:58:39;101852.97;;;6.26;100.00
60355;BME280;46198;51.464;-0.066;2023-04-07T05:01:17;101860.22;;;6.26;100.00
60355;BME280;46198;51.464;-0.066;2023-04-07T05:03:58;101849.44;;;6.26;100.00
60355;BME280;46198;51.464;-0.066;2023-04-07T05:06:29;101847.78;;;6.25;100.00
60355;BME280;46198;51.464;-0.066;2023-04-07T05:09:03;101854.84;;;6.26;100.00
60355;BME280;46198;51.464;-0.066;2023-04-07T05:11:39;101855.00;;;6.24;100.00
60355;BME280;46198;51.464;-0.066;2023-04-07T05:14:09;101859.19;;;6.18;100.00
60355;BME280;46198;51.464;-0.066;2023-04-07T05:16:42;101855.34;;;6.21;100.00
60355;BME280;46198;51.464;-0.066;2023-04-07T05:19:15;101866.94;;;6.21;100.00
60355;BME280;46198;51.464;-0.066;2023-04-07T05:21:45;101869.50;;;6.23;100.00
60355;BME280;46198;51.464;-0.066;2023-04-07T05:24:14;101872.34;;;6.21;100.00
60355;BME280;46198;51.464;-0.066;2023-04-07T05:26:45;101869.84;;;6.20;100.00
60355;BME280;46198;51.464;-0.066;2023-04-07T05:29:13;101876.41;;;6.17;100.00
60355;BME280;46198;51.464;-0.066;2023-04-07T05:31:41;101890.03;;;6.16;100.00
60355;BME280;46198;51.464;-0.066;2023-04-07T05:34:12;101884.97;;;6.13;100.00
60355;BME280;46198;51.464;-0.066;2023-04-07T05:36:48;101887.84;;;6.11;100.00
60355;BME280;46198;51.464;-0.066;2023-04-07T05:39:16;101883.44;;;6.10;100.00
60355;BME280;46198;51.464;-0.066;2023-04-07T05:41:45;101889.19;;;6.07;100.00
60355;BME280;46198;51.464;-0.066;2023-04-07T05:44:14;101884.81;;;6.06;100.00
60355;BME280;46198;51.464;-0.066;2023-04-07T05:46:42;101900.97;;;6.06;100.00
60355;BME280;46198;51.464;-0.066;2023-04-07T05:49:10;101903.50;;;6.08;100.00
60355;BME280;46198;51.464;-0.066;2023-04-07T05:51:50;101900.66;;;6.09;100.00
60355;BME280;46198;51.464;-0.066;2023-04-07T05:54:18;101906.03;;;6.09;100.00
60355;BME280;46198;51.464;-0.066;2023-04-07T05:56:47;101914.63;;;6.13;100.00
60355;BME280;46198;51.464;-0.066;2023-04-07T05:59:15;101917.00;;;6.16;100.00
60355;BME280;46198;51.464;-0.066;2023-04-07T06:01:44;101919.88;;;6.14;100.00
60355;BME280;46198;51.464;-0.066;2023-04-07T06:04:12;101918.72;;;6.17;100.00
60355;BME280;46198;51.464;-0.066;2023-04-07T06:06:40;101922.72;;;6.13;100.00
60355;BME280;46198;51.464;-0.066;2023-04-07T06:09:09;101927.97;;;6.14;100.00
60355;BME280;46198;51.464;-0.066;2023-04-07T06:11:37;101924.94;;;6.17;100.00
60355;BME280;46198;51.464;-0.066;2023-04-07T06:14:05;101928.84;;;6.23;100.00
60355;BME280;46198;51.464;-0.066;2023-04-07T06:16:33;101937.06;;;6.21;100.00
60355;BME280;46198;51.464;-0.066;2023-04-07T06:19:01;101932.72;;;6.29;100.00
60355;BME280;46198;51.464;-0.066;2023-04-07T06:21:29;101936.94;;;6.31;100.00
60355;BME280;46198;51.464;-0.066;2023-04-07T06:23:57;101930.22;;;6.35;100.00
60355;BME280;46198;51.464;-0.066;2023-04-07T06:26:27;101927.34;;;6.37;100.00
60355;BME280;46198;51.464;-0.066;2023-04-07T06:28:55;101932.06;;;6.43;100.00
60355;BME280;46198;51.464;-0.066;2023-04-07T06:31:24;101938.16;;;6.45;100.00
60355;BME280;46198;51.464;-0.066;2023-04-07T06:33:52;101948.28;;;6.51;100.00
60355;BME280;46198;51.464;-0.066;2023-04-07T06:36:21;101943.56;;;6.53;100.00
60355;BME280;46198;51.464;-0.066;2023-04-07T06:38:51;101950.66;;;6.54;100.00
60355;BME280;46198;51.464;-0.066;2023-04-07T06:41:20;101950.47;;;6.56;100.00
60355;BME280;46198;51.464;-0.066;2023-04-07T06:43:49;101947.63;;;6.57;100.00
60355;BME280;46198;51.464;-0.066;2023-04-07T06:46:18;101953.53;;;6.61;100.00
60355;BME280;46198;51.464;-0.066;2023-04-07T06:48:46;101947.66;;;6.65;100.00
60355;BME280;46198;51.464;-0.066;2023-04-07T06:51:14;101949.66;;;6.72;100.00
60355;BME280;46198;51.464;-0.066;2023-04-07T06:53:41;101955.06;;;6.80;100.00
60355;BME280;46198;51.464;-0.066;2023-04-07T06:56:10;101950.84;;;6.85;100.00
60355;BME280;46198;51.464;-0.066;2023-04-07T06:58:38;101965.19;;;7.02;100.00
60355;BME280;46198;51.464;-0.066;2023-04-07T07:01:07;101966.22;;;7.26;100.00
60355;BME280;46198;51.464;-0.066;2023-04-07T07:03:35;101966.88;;;7.52;100.00
60355;BME280;46198;51.464;-0.066;2023-04-07T07:06:03;101973.72;;;7.80;100.00
60355;BME280;46198;51.464;-0.066;2023-04-07T07:12:37;101969.56;;;8.48;100.00
60355;BME280;46198;51.464;-0.066;2023-04-07T07:15:05;101965.81;;;8.49;100.00
60355;BME280;46198;51.464;-0.066;2023-04-07T07:17:34;101970.88;;;8.52;100.00
60355;BME280;46198;51.464;-0.066;2023-04-07T07:20:03;101977.78;;;8.85;100.00
60355;BME280;46198;51.464;-0.066;2023-04-07T07:22:31;101974.41;;;8.83;100.00
60355;BME280;46198;51.464;-0.066;2023-04-07T07:24:59;101972.84;;;8.89;100.00
60355;BME280;46198;51.464;-0.066;2023-04-07T07:27:26;101975.50;;;9.35;100.00
60355;BME280;46198;51.464;-0.066;2023-04-07T07:29:54;101975.28;;;9.89;100.00
60355;BME280;46198;51.464;-0.066;2023-04-07T07:32:22;101982.00;;;9.79;100.00
60355;BME280;46198;51.464;-0.066;2023-04-07T07:34:51;101977.13;;;10.33;100.00
60355;BME280;46198;51.464;-0.066;2023-04-07T07:37:19;101978.25;;;10.09;100.00
60355;BME280;46198;51.464;-0.066;2023-04-07T07:39:47;101971.09;;;10.23;100.00
60355;BME280;46198;51.464;-0.066;2023-04-07T07:42:15;101973.25;;;11.00;100.00
60355;BME280;46198;51.464;-0.066;2023-04-07T07:44:43;101968.59;;;11.16;100.00
60355;BME280;46198;51.464;-0.066;2023-04-07T07:47:11;101971.31;;;11.16;100.00
60355;BME280;46198;51.464;-0.066;2023-04-07T07:49:39;101966.38;;;11.04;100.00
60355;BME280;46198;51.464;-0.066;2023-04-07T07:52:08;101970.72;;;10.56;100.00
60355;BME280;46198;51.464;-0.066;2023-04-07T07:54:37;101977.84;;;10.42;100.00
60355;BME280;46198;51.464;-0.066;2023-04-07T07:57:05;101981.44;;;10.13;100.00
60355;BME280;46198;51.464;-0.066;2023-04-07T07:59:33;101975.56;;;10.82;100.00
60355;BME280;46198;51.464;-0.066;2023-04-07T08:02:01;101974.47;;;10.76;100.00
60355;BME280;46198;51.464;-0.066;2023-04-07T08:04:28;101978.66;;;11.43;100.00
60355;BME280;46198;51.464;-0.066;2023-04-07T08:06:56;101982.25;;;11.50;100.00
60355;BME280;46198;51.464;-0.066;2023-04-07T08:09:26;101974.56;;;11.61;100.00
60355;BME280;46198;51.464;-0.066;2023-04-07T08:11:54;101981.91;;;11.32;100.00
60355;BME280;46198;51.464;-0.066;2023-04-07T08:14:22;101988.00;;;11.13;100.00
60355;BME280;46198;51.464;-0.066;2023-04-07T08:16:52;101988.66;;;10.93;100.00
60355;BME280;46198;51.464;-0.066;2023-04-07T08:19:20;101984.28;;;11.42;100.00
60355;BME280;46198;51.464;-0.066;2023-04-07T08:21:48;101985.53;;;11.67;100.00
60355;BME280;46198;51.464;-0.066;2023-04-07T08:24:15;101984.03;;;11.93;100.00
60355;BME280;46198;51.464;-0.066;2023-04-07T08:26:45;101992.53;;;12.18;100.00
60355;BME280;46198;51.464;-0.066;2023-04-07T08:29:13;101991.31;;;12.27;100.00
60355;BME280;46198;51.464;-0.066;2023-04-07T08:31:41;101996.69;;;11.79;100.00
60355;BME280;46198;51.464;-0.066;2023-04-07T08:34:09;101994.94;;;12.00;100.00
60355;BME280;46198;51.464;-0.066;2023-04-07T08:36:37;101984.84;;;11.87;100.00
60355;BME280;46198;51.464;-0.066;2023-04-07T08:39:05;101982.97;;;12.35;100.00
60355;BME280;46198;51.464;-0.066;2023-04-07T08:41:35;101991.47;;;11.84;100.00
60355;BME280;46198;51.464;-0.066;2023-04-07T08:44:05;101995.94;;;11.64;100.00
60355;BME280;46198;51.464;-0.066;2023-04-07T08:46:33;101998.09;;;11.75;100.00
60355;BME280;46198;51.464;-0.066;2023-04-07T08:49:01;101997.38;;;11.88;100.00
60355;BME280;46198;51.464;-0.066;2023-04-07T08:51:31;101998.56;;;11.79;100.00
60355;BME280;46198;51.464;-0.066;2023-04-07T08:54:01;102002.78;;;11.81;100.00
60355;BME280;46198;51.464;-0.066;2023-04-07T08:56:31;101996.28;;;12.65;100.00
60355;BME280;46198;51.464;-0.066;2023-04-07T08:59:00;102000.09;;;12.97;100.00
60355;BME280;46198;51.464;-0.066;2023-04-07T09:01:29;102007.94;;;13.40;100.00
60355;BME280;46198;51.464;-0.066;2023-04-07T09:03:57;102003.28;;;13.07;100.00
60355;BME280;46198;51.464;-0.066;2023-04-07T09:06:25;101999.13;;;13.71;100.00
60355;BME280;46198;51.464;-0.066;2023-04-07T09:08:54;102011.06;;;13.90;100.00
60355;BME280;46198;51.464;-0.066;2023-04-07T09:11:21;102008.25;;;14.10;100.00
60355;BME280;46198;51.464;-0.066;2023-04-07T09:13:50;102011.03;;;13.11;100.00
60355;BME280;46198;51.464;-0.066;2023-04-07T09:16:18;102005.81;;;13.75;100.00
60355;BME280;46198;51.464;-0.066;2023-04-07T09:18:47;102008.97;;;13.72;100.00
60355;BME280;46198;51.464;-0.066;2023-04-07T09:21:15;102007.06;;;13.86;100.00
60355;BME280;46198;51.464;-0.066;2023-04-07T09:23:43;102003.28;;;14.01;100.00
60355;BME280;46198;51.464;-0.066;2023-04-07T09:26:18;102006.19;;;13.99;100.00
60355;BME280;46198;51.464;-0.066;2023-04-07T09:28:46;102013.38;;;13.27;100.00
60355;BME280;46198;51.464;-0.066;2023-04-07T09:31:16;102012.94;;;13.83;100.00
60355;BME280;46198;51.464;-0.066;2023-04-07T09:33:44;102009.28;;;14.23;100.00
60355;BME280;46198;51.464;-0.066;2023-04-07T09:36:14;102015.31;;;13.46;100.00
60355;BME280;46198;51.464;-0.066;2023-04-07T09:38:43;102009.72;;;14.19;100.00
60355;BME280;46198;51.464;-0.066;2023-04-07T09:41:11;102009.31;;;14.74;100.00
60355;BME280;46198;51.464;-0.066;2023-04-07T09:43:41;102012.19;;;14.34;100.00
60355;BME280;46198;51.464;-0.066;2023-04-07T09:46:11;102007.47;;;14.61;100.00
60355;BME280;46198;51.464;-0.066;2023-04-07T09:48:39;102016.22;;;14.18;100.00
60355;BME280;46198;51.464;-0.066;2023-04-07T09:51:09;102015.97;;;14.27;100.00
60355;BME280;46198;51.464;-0.066;2023-04-07T09:53:42;102010.22;;;13.90;100.00
60355;BME280;46198;51.464;-0.066;2023-04-07T09:56:11;101999.47;;;14.02;100.00
60355;BME280;46198;51.464;-0.066;2023-04-07T09:58:39;102013.84;;;13.44;100.00
60355;BME280;46198;51.464;-0.066;2023-04-07T10:01:07;102001.63;;;13.80;100.00
60355;BME280;46198;51.464;-0.066;2023-04-07T10:03:36;102001.41;;;13.74;100.00
60355;BME280;46198;51.464;-0.066;2023-04-07T10:06:04;102010.84;;;13.79;100.00
60355;BME280;46198;51.464;-0.066;2023-04-07T10:08:33;102004.06;;;14.14;100.00
60355;BME280;46198;51.464;-0.066;2023-04-07T10:11:03;102005.34;;;14.05;100.00
60355;BME280;46198;51.464;-0.066;2023-04-07T10:13:32;101997.03;;;13.73;100.00
60355;BME280;46198;51.464;-0.066;2023-04-07T10:16:01;102002.53;;;14.32;100.00
60355;BME280;46198;51.464;-0.066;2023-04-07T10:18:30;102000.91;;;14.11;100.00
60355;BME280;46198;51.464;-0.066;2023-04-07T10:20:59;102001.13;;;14.03;100.00
60355;BME280;46198;51.464;-0.066;2023-04-07T10:23:31;102006.03;;;13.81;100.00
60355;BME280;46198;51.464;-0.066;2023-04-07T10:26:02;102001.63;;;13.66;100.00
60355;BME280;46198;51.464;-0.066;2023-04-07T10:28:31;102004.16;;;13.48;100.00
60355;BME280;46198;51.464;-0.066;2023-04-07T10:31:00;101999.09;;;13.65;100.00
60355;BME280;46198;51.464;-0.066;2023-04-07T10:33:45;101995.88;;;14.14;100.00
60355;BME280;46198;51.464;-0.066;2023-04-07T10:36:14;102005.16;;;14.58;100.00
60355;BME280;46198;51.464;-0.066;2023-04-07T10:38:47;101994.13;;;14.33;96.47
60355;BME280;46198;51.464;-0.066;2023-04-07T10:41:37;101991.00;;;14.16;98.09
60355;BME280;46198;51.464;-0.066;2023-04-07T10:44:05;101995.28;;;13.99;100.00
60355;BME280;46198;51.464;-0.066;2023-04-07T10:47:01;101989.72;;;14.26;100.00
60355;BME280;46198;51.464;-0.066;2023-04-07T10:49:29;101991.88;;;14.69;100.00
60355;BME280;46198;51.464;-0.066;2023-04-07T10:54:44;101983.28;;;15.22;100.00
60355;BME280;46198;51.464;-0.066;2023-04-07T10:57:13;101986.81;;;15.29;96.85
60355;BME280;46198;51.464;-0.066;2023-04-07T11:02:31;101989.44;;;15.42;97.06
60355;BME280;46198;51.464;-0.066;2023-04-07T11:05:00;101984.34;;;15.46;91.78
60355;BME280;46198;51.464;-0.066;2023-04-07T11:07:44;101986.97;;;16.03;95.68
60355;BME280;46198;51.464;-0.066;2023-04-07T11:10:13;101985.34;;;15.51;83.96
60355;BME280;46198;51.464;-0.066;2023-04-07T11:12:43;101983.34;;;15.40;83.53
60355;BME280;46198;51.464;-0.066;2023-04-07T11:15:18;101989.22;;;14.87;87.51
60355;BME280;46198;51.464;-0.066;2023-04-07T11:20:39;101984.75;;;14.61;77.96
60355;BME280;46198;51.464;-0.066;2023-04-07T11:23:09;101985.88;;;14.85;88.27
60355;BME280;46198;51.464;-0.066;2023-04-07T11:25:37;101985.41;;;15.20;83.25
60355;BME280;46198;51.464;-0.066;2023-04-07T11:28:08;101978.13;;;14.82;83.52
60355;BME280;46198;51.464;-0.066;2023-04-07T11:30:36;101988.94;;;15.02;83.81
60355;BME280;46198;51.464;-0.066;2023-04-07T11:33:05;101983.16;;;14.85;83.37
60355;BME280;46198;51.464;-0.066;2023-04-07T11:35:34;101980.44;;;15.35;85.21
60355;BME280;46198;51.464;-0.066;2023-04-07T11:38:02;101988.84;;;15.40;87.93
60355;BME280;46198;51.464;-0.066;2023-04-07T11:40:31;101984.09;;;15.04;79.42
60355;BME280;46198;51.464;-0.066;2023-04-07T11:43:00;101989.47;;;14.79;72.27
60355;BME280;46198;51.464;-0.066;2023-04-07T11:45:29;101986.81;;;15.04;78.60
60355;BME280;46198;51.464;-0.066;2023-04-07T11:47:57;101994.16;;;14.72;70.86
60355;BME280;46198;51.464;-0.066;2023-04-07T11:54:03;101984.63;;;15.63;72.93
60355;BME280;46198;51.464;-0.066;2023-04-07T11:56:40;101988.66;;;16.22;71.34
60355;BME280;46198;51.464;-0.066;2023-04-07T11:59:08;101989.19;;;15.94;60.35
60355;BME280;46198;51.464;-0.066;2023-04-07T12:01:40;101988.78;;;16.46;62.59
60355;BME280;46198;51.464;-0.066;2023-04-07T12:04:11;101995.25;;;16.51;62.92
60355;BME280;46198;51.464;-0.066;2023-04-07T12:06:39;101987.91;;;16.15;62.87
60355;BME280;46198;51.464;-0.066;2023-04-07T12:09:08;102000.69;;;16.21;64.81
60355;BME280;46198;51.464;-0.066;2023-04-07T12:11:36;101992.25;;;16.53;61.88
60355;BME280;46198;51.464;-0.066;2023-04-07T12:14:15;101992.84;;;17.15;64.78
60355;BME280;46198;51.464;-0.066;2023-04-07T12:16:45;101988.41;;;17.56;60.94
60355;BME280;46198;51.464;-0.066;2023-04-07T12:19:13;101987.00;;;18.29;63.18
60355;BME280;46198;51.464;-0.066;2023-04-07T12:21:41;101992.28;;;18.19;52.37
60355;BME280;46198;51.464;-0.066;2023-04-07T12:24:09;101991.44;;;16.82;51.84
60355;BME280;46198;51.464;-0.066;2023-04-07T12:26:37;102001.13;;;17.50;52.50
60355;BME280;46198;51.464;-0.066;2023-04-07T12:29:05;101992.56;;;16.45;41.54
60355;BME280;46198;51.464;-0.066;2023-04-07T12:31:33;101995.50;;;16.13;41.96
60355;BME280;46198;51.464;-0.066;2023-04-07T12:34:03;101997.66;;;16.78;58.09
60355;BME280;46198;51.464;-0.066;2023-04-07T12:36:31;101989.41;;;17.32;49.08
60355;BME280;46198;51.464;-0.066;2023-04-07T12:38:59;101994.28;;;18.24;48.82
60355;BME280;46198;51.464;-0.066;2023-04-07T12:41:27;101992.94;;;17.86;44.14
60355;BME280;46198;51.464;-0.066;2023-04-07T12:43:55;101983.69;;;17.33;43.58
60355;BME280;46198;51.464;-0.066;2023-04-07T12:46:23;101993.06;;;17.79;44.72
60355;BME280;46198;51.464;-0.066;2023-04-07T12:48:51;101992.56;;;18.46;47.63
60355;BME280;46198;51.464;-0.066;2023-04-07T12:51:20;101992.78;;;18.16;45.58
60355;BME280;46198;51.464;-0.066;2023-04-07T12:53:48;101990.06;;;17.57;46.58
60355;BME280;46198;51.464;-0.066;2023-04-07T12:56:16;101994.84;;;17.85;46.83
60355;BME280;46198;51.464;-0.066;2023-04-07T12:58:44;101988.75;;;17.95;45.51
60355;BME280;46198;51.464;-0.066;2023-04-07T13:01:12;101988.16;;;17.93;47.77
60355;BME280;46198;51.464;-0.066;2023-04-07T13:03:41;101976.34;;;18.61;49.77
60355;BME280;46198;51.464;-0.066;2023-04-07T13:06:09;101986.16;;;18.29;44.47
60355;BME280;46198;51.464;-0.066;2023-04-07T13:08:39;101983.09;;;18.13;46.07